FLL weather

Fort Lauderdale Hollywood International Airport
Fort Lauderdale, Florida, United States

Public forecast

Using degrees Fahrenheit for public forecast. Weather courtesy of forecast.io.

METAR (pilot weather report)

Retrieved 2019/02/17 12:53 UTC (50 minutes ago):

KFLL 171253Z 00000KT 10SM FEW023 SCT050 SCT250 23/22 A3002 RMK AO2 SLP166 T02280222

TAF (pilot weather forecast)

Retrieved 2019/02/17 12:28 UTC (1 hour ago):

TAF KFLL 171120Z 1712/1818 VRB03KT P6SM FEW035 FM171400 17008KT P6SM FEW040 FM171700 16012KT P6SM SCT040 FM180100 15008KT P6SM FEW035 FM181400 16012KT P6SM SCT040